createdAt,value
2023-01-07T00:01:40.933Z,51.13
2023-01-07T00:04:12.719Z,51.48
2023-01-07T00:06:43.462Z,51.16
2023-01-07T00:09:14.248Z,50.78
2023-01-07T00:11:43.015Z,51.23
2023-01-07T00:14:13.208Z,51.05
2023-01-07T00:16:42.346Z,51.04
2023-01-07T00:19:14.584Z,51.04
2023-01-07T00:21:43.390Z,51.22
2023-01-07T00:24:12.274Z,51.75
2023-01-07T00:26:40.945Z,51.99
2023-01-07T00:29:09.868Z,51.51
2023-01-07T00:31:40.284Z,51.66
2023-01-07T00:34:09.596Z,51.69
2023-01-07T00:36:46.256Z,51.30
2023-01-07T00:39:17.778Z,51.23
2023-01-07T00:42:06.891Z,52.35
2023-01-07T00:44:36.895Z,51.90
2023-01-07T00:47:05.455Z,52.26
2023-01-07T00:49:34.088Z,51.63
2023-01-07T00:52:02.518Z,51.38
2023-01-07T00:54:31.064Z,51.71
2023-01-07T00:56:59.464Z,51.75
2023-01-07T00:59:28.045Z,51.54
2023-01-07T01:01:56.713Z,51.69
2023-01-07T01:04:25.252Z,51.57
2023-01-07T01:06:54.707Z,51.76
2023-01-07T01:09:25.328Z,52.22
2023-01-07T01:11:54.937Z,51.92
2023-01-07T01:14:23.523Z,51.65
2023-01-07T01:16:52.064Z,51.16
2023-01-07T01:19:21.601Z,51.18
2023-01-07T01:21:50.135Z,51.35
2023-01-07T01:24:18.830Z,51.39
2023-01-07T01:26:47.369Z,51.51
2023-01-07T01:29:15.809Z,51.56
2023-01-07T01:31:44.405Z,51.67
2023-01-07T01:34:13.106Z,51.64
2023-01-07T01:36:41.836Z,51.77
2023-01-07T01:39:10.399Z,51.90
2023-01-07T01:41:39.186Z,51.78
2023-01-07T01:44:35.472Z,51.72
2023-01-07T01:47:12.278Z,51.64
2023-01-07T01:49:47.719Z,51.79
2023-01-07T01:52:20.179Z,51.69
2023-01-07T01:54:54.596Z,52.14
2023-01-07T01:57:27.861Z,51.88
2023-01-07T01:59:58.210Z,51.85
2023-01-07T02:02:34.748Z,51.56
2023-01-07T02:05:04.656Z,52.14
2023-01-07T02:07:33.248Z,52.08
2023-01-07T02:10:11.881Z,52.19
2023-01-07T02:13:07.059Z,51.73
2023-01-07T02:15:48.359Z,51.68
2023-01-07T02:18:38.623Z,51.79
2023-01-07T02:21:33.823Z,52.29
2023-01-07T02:24:08.221Z,52.35
2023-01-07T02:27:09.124Z,51.86
2023-01-07T02:30:02.502Z,51.75
2023-01-07T02:33:24.725Z,51.84
2023-01-07T02:36:24.208Z,51.33
2023-01-07T02:39:21.836Z,51.07
2023-01-07T02:42:02.413Z,51.55
2023-01-07T02:44:54.102Z,51.92
2023-01-07T02:47:45.937Z,51.86
2023-01-07T02:50:14.697Z,51.46
2023-01-07T02:52:43.276Z,51.26
2023-01-07T02:55:33.443Z,51.00
2023-01-07T02:58:08.122Z,51.10
2023-01-07T03:01:18.502Z,51.23
2023-01-07T03:04:12.598Z,51.25
2023-01-07T03:07:05.964Z,51.28
2023-01-07T03:09:37.483Z,51.50
2023-01-07T03:12:21.409Z,51.07
2023-01-07T03:14:55.795Z,51.99
2023-01-07T03:18:06.124Z,51.73
2023-01-07T03:20:38.041Z,51.58
2023-01-07T03:23:09.865Z,51.30
2023-01-07T03:25:43.863Z,51.25
2023-01-07T03:28:17.765Z,51.28
2023-01-07T03:30:49.244Z,51.34
2023-01-07T03:33:35.095Z,51.18
2023-01-07T03:36:06.655Z,51.31
2023-01-07T03:38:37.612Z,51.09
2023-01-07T03:41:06.112Z,50.96
2023-01-07T03:43:34.811Z,51.41
2023-01-07T03:46:03.514Z,50.97
2023-01-07T03:48:31.986Z,50.94
2023-01-07T03:51:00.437Z,51.26
2023-01-07T03:53:28.829Z,51.15
2023-01-07T03:55:57.311Z,51.43
2023-01-07T03:58:25.894Z,51.25
2023-01-07T04:00:55.855Z,51.72
2023-01-07T04:03:24.429Z,51.75
2023-01-07T04:05:52.896Z,51.83
2023-01-07T04:08:21.331Z,51.46
2023-01-07T04:10:49.704Z,51.20
2023-01-07T04:13:18.137Z,51.48
2023-01-07T04:15:46.658Z,50.58
2023-01-07T04:18:15.156Z,51.05
2023-01-07T04:20:48.549Z,50.86
2023-01-07T04:23:17.191Z,51.13
2023-01-07T04:25:50.159Z,51.20
2023-01-07T04:28:18.695Z,51.18
2023-01-07T04:30:47.281Z,51.25
2023-01-07T04:33:15.838Z,51.04
2023-01-07T04:35:46.702Z,51.13
2023-01-07T04:38:15.272Z,51.40
2023-01-07T04:40:44.113Z,51.45
2023-01-07T04:43:12.656Z,51.32
2023-01-07T04:45:41.300Z,51.20
2023-01-07T04:48:09.775Z,50.95
2023-01-07T04:50:38.357Z,51.10
2023-01-07T04:53:08.164Z,51.32
2023-01-07T04:55:36.703Z,51.32
2023-01-07T04:58:05.193Z,51.14
2023-01-07T05:00:33.742Z,50.96
2023-01-07T05:03:02.140Z,50.89
2023-01-07T05:05:30.604Z,51.01
2023-01-07T05:07:59.161Z,50.71
2023-01-07T05:10:27.793Z,50.73
2023-01-07T05:12:56.244Z,51.21
2023-01-07T05:15:24.746Z,51.18
2023-01-07T05:17:53.266Z,50.60
2023-01-07T05:20:21.666Z,50.45
2023-01-07T05:22:50.367Z,51.08
2023-01-07T05:25:18.881Z,50.54
2023-01-07T05:27:47.394Z,50.63
2023-01-07T05:30:16.040Z,50.68
2023-01-07T05:32:44.465Z,50.59
2023-01-07T05:35:13.946Z,50.71
2023-01-07T05:37:42.499Z,51.02
2023-01-07T05:40:11.647Z,50.83
2023-01-07T05:42:40.220Z,50.34
2023-01-07T05:45:09.034Z,50.44
2023-01-07T05:47:37.511Z,50.44
2023-01-07T05:50:06.473Z,50.27
2023-01-07T05:52:34.976Z,50.01
2023-01-07T05:55:03.939Z,50.08
2023-01-07T05:57:33.095Z,49.93
2023-01-07T06:00:01.631Z,50.04
2023-01-07T06:02:30.143Z,49.38
2023-01-07T06:04:58.710Z,49.73
2023-01-07T06:07:27.221Z,49.34
2023-01-07T06:09:55.707Z,49.40
2023-01-07T06:12:24.279Z,49.50
2023-01-07T06:14:53.840Z,49.01
2023-01-07T06:17:22.605Z,49.09
2023-01-07T06:19:51.117Z,49.12
2023-01-07T06:22:19.712Z,48.94
2023-01-07T06:24:48.102Z,48.83
2023-01-07T06:27:16.871Z,48.56
2023-01-07T06:29:45.340Z,48.31
2023-01-07T06:32:13.775Z,48.25
2023-01-07T06:34:42.342Z,48.56
2023-01-07T06:37:11.906Z,48.18
2023-01-07T06:39:40.496Z,48.27
2023-01-07T06:42:08.885Z,47.89
2023-01-07T06:44:37.521Z,47.96
2023-01-07T06:47:06.009Z,48.06
2023-01-07T06:49:34.514Z,48.27
2023-01-07T06:52:03.063Z,47.81
2023-01-07T06:54:31.649Z,47.87
2023-01-07T06:57:00.159Z,48.01
2023-01-07T06:59:28.657Z,47.43
2023-01-07T07:01:57.318Z,47.49
2023-01-07T07:04:25.857Z,47.99
2023-01-07T07:06:54.405Z,47.98
2023-01-07T07:09:22.969Z,47.61
2023-01-07T07:11:51.443Z,47.55
2023-01-07T07:14:19.908Z,47.61
2023-01-07T07:16:49.584Z,47.39
2023-01-07T07:19:18.204Z,47.49
2023-01-07T07:21:47.731Z,47.41
2023-01-07T07:24:16.181Z,46.82
2023-01-07T07:26:44.695Z,47.38
2023-01-07T07:29:13.467Z,47.06
2023-01-07T07:31:42.210Z,47.60
2023-01-07T07:34:11.169Z,47.69
2023-01-07T07:36:39.820Z,47.24
2023-01-07T07:39:08.313Z,47.39
2023-01-07T07:41:36.760Z,47.47
2023-01-07T07:44:05.251Z,47.41
2023-01-07T07:46:33.930Z,47.60
2023-01-07T07:49:02.614Z,47.37
2023-01-07T07:51:31.228Z,47.67
2023-01-07T07:53:59.676Z,47.29
2023-01-07T07:56:28.178Z,47.20
2023-01-07T07:58:56.773Z,46.88
2023-01-07T08:01:25.352Z,47.05
2023-01-07T08:03:53.853Z,46.98
2023-01-07T08:06:22.343Z,46.94
2023-01-07T08:08:50.907Z,46.72
2023-01-07T08:11:19.400Z,47.06
2023-01-07T08:13:47.875Z,47.18
2023-01-07T08:16:16.396Z,46.94
2023-01-07T08:18:44.916Z,47.34
2023-01-07T08:21:13.363Z,46.92
2023-01-07T08:23:42.051Z,47.16
2023-01-07T08:26:10.700Z,47.04
2023-01-07T08:28:39.491Z,46.52
2023-01-07T08:31:08.340Z,46.32
2023-01-07T08:33:38.618Z,46.29
2023-01-07T08:36:22.182Z,46.32
2023-01-07T08:38:52.824Z,46.33
2023-01-07T08:41:23.755Z,46.14
2023-01-07T08:43:53.080Z,46.36
2023-01-07T08:46:22.128Z,45.92
2023-01-07T08:48:51.113Z,45.93
2023-01-07T08:51:19.531Z,46.22
2023-01-07T08:53:48.387Z,45.81
2023-01-07T08:56:16.951Z,45.61
2023-01-07T08:58:45.364Z,46.17
2023-01-07T09:01:13.956Z,45.87
2023-01-07T09:03:42.709Z,45.49
2023-01-07T09:06:12.468Z,45.18
2023-01-07T09:08:43.126Z,45.24
2023-01-07T09:11:11.798Z,45.58
2023-01-07T09:13:40.341Z,45.28
2023-01-07T09:16:09.147Z,45.64
2023-01-07T09:18:37.576Z,45.31
2023-01-07T09:21:06.570Z,45.50
2023-01-07T09:23:35.276Z,45.41
2023-01-07T09:26:03.751Z,45.22
2023-01-07T09:28:32.419Z,45.54
2023-01-07T09:31:01.987Z,45.17
2023-01-07T09:33:30.505Z,45.16
2023-01-07T09:35:59.094Z,45.23
2023-01-07T09:38:27.706Z,45.06
2023-01-07T09:40:57.497Z,44.48
2023-01-07T09:43:59.632Z,44.82
2023-01-07T09:46:27.062Z,44.82
2023-01-07T09:49:01.185Z,44.76
2023-01-07T09:51:43.775Z,44.31
2023-01-07T09:54:27.997Z,44.08
2023-01-07T09:56:56.473Z,44.49
2023-01-07T09:59:25.117Z,44.62
2023-01-07T10:01:56.153Z,44.44
2023-01-07T10:04:38.043Z,44.34
2023-01-07T10:07:28.016Z,44.93
2023-01-07T10:10:30.529Z,43.67
2023-01-07T10:13:17.399Z,44.49
2023-01-07T10:16:11.807Z,44.34
2023-01-07T10:18:53.301Z,43.77
2023-01-07T10:21:36.336Z,43.55
2023-01-07T10:24:14.029Z,43.88
2023-01-07T10:26:48.278Z,43.84
2023-01-07T10:29:28.931Z,43.49
2023-01-07T10:32:02.514Z,43.74
2023-01-07T10:34:56.102Z,43.03
2023-01-07T10:37:40.196Z,42.62
2023-01-07T10:40:29.812Z,43.44
2023-01-07T10:43:07.154Z,43.02
2023-01-07T10:46:24.053Z,43.41
2023-01-07T10:49:16.005Z,42.52
2023-01-07T10:52:09.963Z,42.56
2023-01-07T10:54:50.300Z,42.49
2023-01-07T10:57:22.933Z,42.29
2023-01-07T10:59:55.147Z,42.34
2023-01-07T11:02:27.373Z,41.79
2023-01-07T11:04:56.739Z,42.17
2023-01-07T11:07:26.239Z,41.74
2023-01-07T11:09:56.872Z,42.55
2023-01-07T11:12:41.420Z,41.83
2023-01-07T11:15:34.900Z,41.98
2023-01-07T11:18:16.563Z,42.27
2023-01-07T11:20:53.415Z,42.11
2023-01-07T11:23:24.878Z,42.24
2023-01-07T11:25:55.331Z,41.94
2023-01-07T11:28:27.565Z,41.69
2023-01-07T11:30:59.372Z,41.90
2023-01-07T11:34:01.558Z,42.07
2023-01-07T11:36:40.961Z,41.92
2023-01-07T11:39:31.341Z,42.62
2023-01-07T11:42:38.248Z,42.08
2023-01-07T11:45:23.849Z,42.20
2023-01-07T11:48:09.372Z,41.93
2023-01-07T11:50:52.980Z,41.85
2023-01-07T11:53:34.205Z,41.34
2023-01-07T11:56:23.334Z,41.62
2023-01-07T11:59:15.972Z,42.09
2023-01-07T12:01:53.585Z,41.58
2023-01-07T12:04:25.777Z,41.09
2023-01-07T12:06:55.904Z,41.03
2023-01-07T12:09:27.055Z,41.63
2023-01-07T12:12:00.393Z,41.12
2023-01-07T12:14:32.385Z,41.70
2023-01-07T12:17:15.347Z,41.25
2023-01-07T12:20:02.403Z,41.21
2023-01-07T12:22:39.595Z,41.33
2023-01-07T12:25:29.746Z,41.93
2023-01-07T12:29:05.942Z,41.49
2023-01-07T12:31:34.546Z,40.70
2023-01-07T12:34:24.157Z,41.72
2023-01-07T12:37:01.650Z,41.91
2023-01-07T12:39:43.738Z,41.36
2023-01-07T12:42:26.589Z,41.58
2023-01-07T12:45:01.539Z,40.52
2023-01-07T12:47:37.483Z,41.21
2023-01-07T12:50:13.508Z,42.33
2023-01-07T12:52:52.985Z,41.51
2023-01-07T12:55:31.024Z,40.88
2023-01-07T12:58:06.411Z,41.45
2023-01-07T13:00:59.714Z,41.07
2023-01-07T13:03:58.008Z,40.90
2023-01-07T13:06:59.151Z,41.04
2023-01-07T13:09:36.717Z,41.13
2023-01-07T13:12:42.481Z,40.93
2023-01-07T13:15:33.831Z,41.20
2023-01-07T13:18:22.836Z,40.95
2023-01-07T13:21:11.123Z,41.76
2023-01-07T13:24:01.398Z,40.80
2023-01-07T13:26:51.149Z,41.58
2023-01-07T13:29:22.501Z,41.31
2023-01-07T13:32:30.102Z,41.18
2023-01-07T13:35:01.621Z,41.05
2023-01-07T13:37:57.577Z,41.40
2023-01-07T13:40:47.241Z,41.72
2023-01-07T13:43:15.743Z,41.55
2023-01-07T13:45:52.907Z,41.97
2023-01-07T13:48:25.615Z,41.75
2023-01-07T13:51:01.791Z,41.66
2023-01-07T13:53:36.202Z,42.17
2023-01-07T13:56:17.161Z,41.64
2023-01-07T13:58:48.140Z,42.07
2023-01-07T14:01:18.610Z,41.78
2023-01-07T14:03:53.245Z,41.51
2023-01-07T14:06:21.826Z,41.76
2023-01-07T14:09:05.364Z,41.54
2023-01-07T14:11:33.781Z,41.71
2023-01-07T14:14:30.257Z,41.07
2023-01-07T14:17:22.313Z,41.61
2023-01-07T14:20:12.951Z,41.35
2023-01-07T14:23:12.089Z,41.97
2023-01-07T14:26:02.279Z,41.68
2023-01-07T14:28:52.095Z,41.58
2023-01-07T14:31:26.499Z,41.77
2023-01-07T14:34:17.348Z,42.01
2023-01-07T14:37:01.192Z,41.84
2023-01-07T14:39:31.423Z,41.52
2023-01-07T14:42:18.690Z,41.42
2023-01-07T14:44:51.313Z,41.71
2023-01-07T14:47:44.985Z,41.55
2023-01-07T14:50:38.524Z,41.58
2023-01-07T14:53:29.942Z,41.75
2023-01-07T14:56:13.303Z,41.83
2023-01-07T14:59:15.023Z,42.20
2023-01-07T15:02:25.743Z,42.65
2023-01-07T15:05:13.326Z,41.80
2023-01-07T15:07:45.285Z,42.35
2023-01-07T15:10:40.341Z,42.19
2023-01-07T15:13:37.968Z,41.90
2023-01-07T15:16:11.724Z,43.04
2023-01-07T15:18:54.188Z,42.26
2023-01-07T15:21:40.818Z,42.21
2023-01-07T15:24:28.121Z,42.12
2023-01-07T15:27:21.610Z,42.48
2023-01-07T15:30:06.685Z,42.05
2023-01-07T15:33:13.027Z,42.28
2023-01-07T15:35:44.377Z,42.54
2023-01-07T15:38:35.417Z,42.46
2023-01-07T15:41:04.293Z,42.89
2023-01-07T15:43:33.447Z,42.41
2023-01-07T15:46:04.917Z,41.99
2023-01-07T15:48:33.587Z,42.67
2023-01-07T15:51:02.073Z,42.46
2023-01-07T15:53:31.949Z,42.46
2023-01-07T15:56:08.701Z,42.44
2023-01-07T15:58:48.690Z,42.50
2023-01-07T16:01:25.245Z,42.31
2023-01-07T16:03:57.549Z,42.48
2023-01-07T16:06:25.968Z,42.67
2023-01-07T16:08:54.662Z,42.59
2023-01-07T16:11:29.237Z,43.81
2023-01-07T16:14:03.419Z,42.47
2023-01-07T16:16:32.654Z,43.29
2023-01-07T16:19:03.531Z,42.78
2023-01-07T16:21:37.659Z,43.00
2023-01-07T16:24:07.494Z,43.07
2023-01-07T16:26:40.817Z,43.71
2023-01-07T16:29:31.340Z,43.12
2023-01-07T16:32:00.724Z,43.36
2023-01-07T16:34:30.289Z,43.63
2023-01-07T16:37:00.555Z,43.30
2023-01-07T16:39:35.508Z,43.14
2023-01-07T16:42:27.228Z,42.80
2023-01-07T16:44:55.688Z,43.06
2023-01-07T16:47:26.733Z,43.39
2023-01-07T16:49:59.607Z,43.47
2023-01-07T16:52:34.243Z,43.82
2023-01-07T16:55:02.881Z,44.47
2023-01-07T16:57:42.142Z,43.12
2023-01-07T17:00:18.855Z,43.95
2023-01-07T17:02:58.660Z,43.29
2023-01-07T17:05:31.909Z,43.74
2023-01-07T17:08:05.119Z,43.27
2023-01-07T17:10:42.622Z,44.27
2023-01-07T17:13:14.266Z,44.60
2023-01-07T17:15:43.745Z,44.11
2023-01-07T17:18:12.364Z,45.69
2023-01-07T17:20:55.817Z,44.58
2023-01-07T17:23:33.083Z,45.46
2023-01-07T17:26:18.509Z,44.73
2023-01-07T17:28:51.678Z,44.64
2023-01-07T17:31:24.561Z,45.28
2023-01-07T17:33:54.333Z,45.34
2023-01-07T17:36:25.074Z,45.02
2023-01-07T17:38:53.916Z,45.32
2023-01-07T17:41:50.712Z,45.40
2023-01-07T17:44:19.246Z,46.00
2023-01-07T17:46:48.764Z,45.93
2023-01-07T17:49:17.696Z,45.50
2023-01-07T17:51:48.136Z,46.61
2023-01-07T17:54:22.549Z,45.72
2023-01-07T17:56:52.504Z,45.08
2023-01-07T17:59:22.813Z,45.96
2023-01-07T18:01:53.312Z,46.03
2023-01-07T18:04:22.328Z,45.97
2023-01-07T18:06:50.852Z,46.01
2023-01-07T18:09:19.402Z,46.43
2023-01-07T18:12:06.556Z,46.44
2023-01-07T18:14:35.124Z,46.31
2023-01-07T18:17:03.674Z,45.84
2023-01-07T18:19:32.180Z,46.59
2023-01-07T18:22:00.772Z,45.74
2023-01-07T18:24:31.297Z,45.87
2023-01-07T18:26:59.853Z,46.88
2023-01-07T18:29:28.335Z,46.54
2023-01-07T18:31:56.832Z,45.99
2023-01-07T18:34:25.433Z,45.46
2023-01-07T18:36:54.512Z,45.46
2023-01-07T18:39:31.033Z,45.57
2023-01-07T18:42:00.291Z,45.02
2023-01-07T18:44:29.395Z,46.04
2023-01-07T18:47:02.724Z,45.50
2023-01-07T18:49:39.544Z,45.86
2023-01-07T18:52:13.510Z,45.61
2023-01-07T18:54:43.248Z,46.45
2023-01-07T18:57:15.849Z,46.17
2023-01-07T18:59:44.583Z,46.66
2023-01-07T19:02:20.186Z,46.32
2023-01-07T19:04:54.775Z,46.33
2023-01-07T19:07:23.857Z,46.21
2023-01-07T19:09:56.371Z,45.56
2023-01-07T19:12:28.145Z,45.41
2023-01-07T19:15:01.223Z,46.45
2023-01-07T19:17:38.424Z,46.11
2023-01-07T19:20:08.964Z,45.20
2023-01-07T19:22:45.090Z,46.06
2023-01-07T19:25:25.641Z,46.31
2023-01-07T19:27:54.434Z,45.72
2023-01-07T19:30:26.283Z,46.22
2023-01-07T19:32:57.278Z,46.14
2023-01-07T19:35:29.148Z,45.99
2023-01-07T19:38:00.322Z,45.73
2023-01-07T19:40:28.994Z,45.73
2023-01-07T19:42:59.837Z,45.51
2023-01-07T19:45:39.975Z,46.35
2023-01-07T19:48:12.573Z,45.74
2023-01-07T19:51:01.238Z,45.41
2023-01-07T19:53:35.480Z,46.00
2023-01-07T19:56:13.793Z,47.14
2023-01-07T19:58:45.814Z,46.78
2023-01-07T20:01:17.833Z,46.96
2023-01-07T20:03:56.415Z,45.89
2023-01-07T20:06:30.833Z,46.69
2023-01-07T20:09:10.714Z,46.39
2023-01-07T20:11:42.973Z,47.40
2023-01-07T20:14:14.658Z,47.43
2023-01-07T20:16:45.878Z,47.30
2023-01-07T20:19:34.230Z,46.75
2023-01-07T20:22:06.985Z,47.93
2023-01-07T20:24:44.881Z,47.18
2023-01-07T20:27:15.468Z,47.72
2023-01-07T20:29:45.474Z,48.79
2023-01-07T20:32:18.964Z,47.79
2023-01-07T20:34:51.397Z,48.03
2023-01-07T20:37:29.101Z,47.04
2023-01-07T20:39:57.787Z,47.48
2023-01-07T20:42:27.970Z,48.29
2023-01-07T20:44:57.877Z,47.68
2023-01-07T20:47:28.604Z,48.26
2023-01-07T20:49:57.355Z,47.63
2023-01-07T20:52:30.953Z,47.36
2023-01-07T20:55:06.274Z,47.72
2023-01-07T20:57:41.675Z,47.58
2023-01-07T21:00:11.771Z,48.15
2023-01-07T21:02:46.472Z,49.59
2023-01-07T21:05:23.050Z,47.81
2023-01-07T21:07:52.001Z,47.71
2023-01-07T21:10:23.767Z,47.87
2023-01-07T21:12:59.157Z,47.15
2023-01-07T21:15:30.366Z,48.05
2023-01-07T21:18:05.626Z,47.67
2023-01-07T21:20:37.913Z,47.74
2023-01-07T21:23:07.554Z,48.07
2023-01-07T21:25:39.711Z,48.43
2023-01-07T21:28:17.934Z,48.55
2023-01-07T21:30:54.849Z,47.28
2023-01-07T21:33:25.853Z,48.37
2023-01-07T21:35:58.704Z,48.35
2023-01-07T21:38:30.579Z,47.74
2023-01-07T21:40:59.311Z,50.43
2023-01-07T21:43:28.107Z,48.73
2023-01-07T21:46:00.125Z,48.21
2023-01-07T21:48:36.897Z,48.75
2023-01-07T21:51:19.086Z,49.21
2023-01-07T21:53:48.397Z,49.24
2023-01-07T21:56:28.899Z,48.94
2023-01-07T21:59:03.384Z,47.79
2023-01-07T22:01:32.152Z,48.57
2023-01-07T22:04:05.152Z,48.87
2023-01-07T22:06:40.905Z,48.06
2023-01-07T22:09:20.327Z,48.58
2023-01-07T22:11:55.054Z,49.70
2023-01-07T22:14:30.178Z,49.10
2023-01-07T22:17:01.035Z,49.52
2023-01-07T22:19:40.351Z,48.84
2023-01-07T22:22:09.887Z,48.02
2023-01-07T22:24:41.643Z,47.86
2023-01-07T22:27:18.503Z,48.49
2023-01-07T22:29:51.833Z,49.17
2023-01-07T22:32:47.058Z,48.82
2023-01-07T22:35:23.700Z,48.85
2023-01-07T22:37:53.912Z,48.64
2023-01-07T22:40:29.862Z,48.41
2023-01-07T22:43:11.017Z,48.86
2023-01-07T22:46:12.512Z,50.01
2023-01-07T22:48:44.300Z,48.59
2023-01-07T22:51:25.371Z,48.82
2023-01-07T22:54:01.256Z,48.69
2023-01-07T22:56:48.320Z,48.67
2023-01-07T22:59:28.884Z,48.40
2023-01-07T23:02:03.000Z,47.81
2023-01-07T23:04:41.840Z,47.76
2023-01-07T23:07:30.098Z,47.97
2023-01-07T23:10:03.917Z,49.22
2023-01-07T23:12:35.852Z,48.84
2023-01-07T23:15:32.276Z,48.85
2023-01-07T23:18:03.645Z,48.34
2023-01-07T23:20:51.536Z,48.21
2023-01-07T23:23:26.345Z,48.83
2023-01-07T23:25:57.514Z,48.17
2023-01-07T23:28:34.385Z,48.02
2023-01-07T23:31:05.874Z,48.10
2023-01-07T23:33:37.439Z,48.39
2023-01-07T23:36:13.243Z,48.23
2023-01-07T23:38:49.565Z,48.14
2023-01-07T23:41:19.440Z,48.43
2023-01-07T23:43:58.178Z,47.93
2023-01-07T23:46:30.295Z,48.36
2023-01-07T23:49:08.328Z,48.06
2023-01-07T23:51:44.062Z,48.31
2023-01-07T23:54:21.946Z,48.31
2023-01-07T23:56:52.070Z,48.94
2023-01-07T23:59:31.261Z,48.00
